Overview Statistics Trail Chart Weather Telemetry Raw packets
 

This is the latest recevied weather packets stored in our database for station/object K6CED. If no packets are shown the sender has not sent any weather packets the latest 10 day(s).

<< 18 19 20 21 22 23 24 >>
Time Temp. Humidity Pressure Rain* Wind** Luminosity Snow
1788544673 23.89° C 56% 1016.6 hPa 0 mm - 758 W/m² -
1788544371 23.33° C 58% 1016.9 hPa 0 mm - 747 W/m² -
1788544067 22.78° C 61% 1016.9 hPa 0 mm - 735 W/m² -
1788543763 22.78° C 62% 1017.1 hPa 0 mm - 723 W/m² -
1788543459 22.78° C 61% 1017 hPa 0 mm - 711 W/m² -
1788543158 22.78° C 62% 1016.9 hPa 0 mm - 697 W/m² -
1788542855 22.78° C 62% 1016.9 hPa 0 mm - 687 W/m² -
1788542554 21.67° C 65% 1017 hPa 0 mm - 675 W/m² -
1788542249 22.22° C 64% 1017 hPa 0 mm - 661 W/m² -
1788541944 21.67° C 67% 1016.9 hPa 0 mm - 646 W/m² -
1788541641 21.11° C 69% 1017.1 hPa 0 mm - 636 W/m² -
1788541344 21.11° C 71% 1016.9 hPa 0 mm - 619 W/m² -
1788541035 20.56° C 74% 1016.9 hPa 0 mm - 603 W/m² -
1788540735 20° C 75% 1016.7 hPa 0 mm - 588 W/m² -
1788540429 20° C 74% 1016.9 hPa 0 mm - 575 W/m² -
1788540124 21.11° C 71% 1016.6 hPa 0 mm - 562 W/m² -
1788539821 20.56° C 73% 1016.5 hPa 0 mm - 546 W/m² -
1788539516 20° C 77% 1016.6 hPa 0 mm - 536 W/m² -
1788539214 20° C 74% 1016.9 hPa 0 mm - 523 W/m² -
1788538910 18.89° C 78% 1016.7 hPa 0 mm - 504 W/m² -
1788538605 19.44° C 76% 1016.4 hPa 0 mm - 493 W/m² -
1788538300 19.44° C 78% 1016.7 hPa 0 mm - 468 W/m² -
1788537996 18.89° C 81% 1016.5 hPa 0 mm - 459 W/m² -
1788537691 17.78° C 83% 1016.5 hPa 0 mm - 442 W/m² -
1788537386 17.78° C 84% 1016.5 hPa 0 mm - 268 W/m² -

* Rain latest hour (hover to see other rain measurements)
** Current wind speed in m/s (hover to see current wind gust speed)